Flinter Rose — PBUB — position and weather

sailwx.info

Track history (hours):
 
Tides and Currents Weather Stations Pressure Air Temp Water Temp Dewpoint Dewpoint Depression Visibility Wind Speed Wind Dir Waves Ship Positions

Flinter Rose

Last reported at 2015-Mar-03 00:27 UTC. Time now 2015-Mar-05 11:57 UTC.
Position N 42°54' E 010°36'.

Length 101 m; draft 6.7 m.

Type: Cargo ship. MMSI: 246227000.

Date/timePositionNaut miles runAvg speedWind from/ knotsBaromVisibWave heightAir tempDewpointWater temp
2015-Mar-03 00:27N 42°54' E 010°36'293 5.9
2015-Feb-28 23:04N 41°23' E 004°20'610.8
2015-Feb-28 22:28N 41°20' E 004°12'1210.3
2015-Feb-28 21:19N 41°15' E 003°57'10 9.9
2015-Feb-28 20:18N 41°11' E 003°45'810.2
2015-Feb-28 19:33N 41°08' E 003°36'1110.4
2015-Feb-28 18:28N 41°03' E 003°22'1010.6
2015-Feb-28 17:32N 40°60' E 003°10'1010.3
2015-Feb-28 16:32N 40°55' E 002°58'1010.0
2015-Feb-28 15:33N 40°51' E 002°46'9 9.4
2015-Feb-28 14:33N 40°47' E 002°35'10 9.5
2015-Feb-28 13:28N 40°43' E 002°22'9 9.6
2015-Feb-28 12:33N 40°39' E 002°12'1010.0
2015-Feb-28 11:34N 40°34' E 002°01'9 9.5
2015-Feb-28 10:33N 40°30' E 001°49'8 8.1
2015-Feb-28 09:33N 40°24' E 001°42'8 7.6
2015-Feb-28 08:33N 40°17' E 001°39'8 8.5
2015-Feb-28 07:33N 40°09' E 001°34'8 8.1
2015-Feb-28 06:33N 40°02' E 001°29'8 7.9
2015-Feb-28 05:33N 39°55' E 001°24'8 7.9
2015-Feb-28 04:32N 39°48' E 001°19'125 8.3
2015-Feb-27 13:33N 38°02' W 000°06'1010.0
2015-Feb-27 12:30N 37°53' W 000°13'1010.0
2015-Feb-27 11:29N 37°45' W 000°21'9 9.6
2015-Feb-27 10:33N 37°38' W 000°27'10 9.6
2015-Feb-27 09:33N 37°30' W 000°35'9 9.4
2015-Feb-27 08:33N 37°24' W 000°44'8 8.6
2015-Feb-27 07:34N 37°18' W 000°52'9 8.6
2015-Feb-27 06:32N 37°13' W 000°60'219 8.8
2015-Feb-26 05:34N 35°60' W 005°17'269 8.9
2015-Feb-24 23:22N 38°25' W 010°01'810.1
2015-Feb-24 22:33N 38°33' W 010°04'1010.3
2015-Feb-24 21:33N 38°43' W 010°07'1110.2
2015-Feb-24 20:29N 38°54' W 010°07'  
Track history (hours):
 
Tides and Currents Weather Stations Pressure Air Temp Water Temp Dewpoint Dewpoint Depression Visibility Wind Speed Wind Dir Waves Ship Positions

Flinter Rose

Last reported at 2015-Mar-03 00:27 UTC. Time now 2015-Mar-05 11:57 UTC.
Position N 42°54' E 010°36'.

Length 101 m; draft 6.7 m.

Type: Cargo ship. MMSI: 246227000.

Date/timePositionNaut miles runAvg speedWind from/ knotsBaromVisibWave heightAir tempDewpointWater temp
2015-Mar-03 00:27N 42°54' E 010°36'293 5.9
2015-Feb-28 23:04N 41°23' E 004°20'610.8
2015-Feb-28 22:28N 41°20' E 004°12'1210.3
2015-Feb-28 21:19N 41°15' E 003°57'10 9.9
2015-Feb-28 20:18N 41°11' E 003°45'810.2
2015-Feb-28 19:33N 41°08' E 003°36'1110.4
2015-Feb-28 18:28N 41°03' E 003°22'1010.6
2015-Feb-28 17:32N 40°60' E 003°10'1010.3
2015-Feb-28 16:32N 40°55' E 002°58'1010.0
2015-Feb-28 15:33N 40°51' E 002°46'9 9.4
2015-Feb-28 14:33N 40°47' E 002°35'10 9.5
2015-Feb-28 13:28N 40°43' E 002°22'9 9.6
2015-Feb-28 12:33N 40°39' E 002°12'1010.0
2015-Feb-28 11:34N 40°34' E 002°01'9 9.5
2015-Feb-28 10:33N 40°30' E 001°49'8 8.1
2015-Feb-28 09:33N 40°24' E 001°42'8 7.6
2015-Feb-28 08:33N 40°17' E 001°39'8 8.5
2015-Feb-28 07:33N 40°09' E 001°34'8 8.1
2015-Feb-28 06:33N 40°02' E 001°29'8 7.9
2015-Feb-28 05:33N 39°55' E 001°24'8 7.9
2015-Feb-28 04:32N 39°48' E 001°19'125 8.3
2015-Feb-27 13:33N 38°02' W 000°06'1010.0
2015-Feb-27 12:30N 37°53' W 000°13'1010.0
2015-Feb-27 11:29N 37°45' W 000°21'9 9.6
2015-Feb-27 10:33N 37°38' W 000°27'10 9.6
2015-Feb-27 09:33N 37°30' W 000°35'9 9.4
2015-Feb-27 08:33N 37°24' W 000°44'8 8.6
2015-Feb-27 07:34N 37°18' W 000°52'9 8.6
2015-Feb-27 06:32N 37°13' W 000°60'219 8.8
2015-Feb-26 05:34N 35°60' W 005°17'269 8.9
2015-Feb-24 23:22N 38°25' W 010°01'810.1
2015-Feb-24 22:33N 38°33' W 010°04'1010.3
2015-Feb-24 21:33N 38°43' W 010°07'1110.2
2015-Feb-24 20:29N 38°54' W 010°07'  

Dump ship's entire track history